createdAt,value
2023-05-23T00:04:49.752Z,11.63
2023-05-23T00:09:54.690Z,10.23
2023-05-23T00:14:58.355Z,6.53
2023-05-23T00:20:02.096Z,8.05
2023-05-23T00:25:08.293Z,6.45
2023-05-23T00:30:12.610Z,9.40
2023-05-23T00:35:16.628Z,7.40
2023-05-23T00:40:21.878Z,7.97
2023-05-23T00:50:31.334Z,7.70
2023-05-23T00:55:37.453Z,7.18
2023-05-23T01:00:40.757Z,11.30
2023-05-23T01:05:44.572Z,7.85
2023-05-23T01:10:50.103Z,8.13
2023-05-23T01:16:02.704Z,9.45
2023-05-23T01:21:11.295Z,10.27
2023-05-23T01:26:32.753Z,10.05
2023-05-23T01:31:39.568Z,12.75
2023-05-23T01:36:45.316Z,7.00
2023-05-23T01:41:50.072Z,10.70
2023-05-23T01:46:55.253Z,9.77
2023-05-23T01:52:00.593Z,13.05
2023-05-23T01:57:05.960Z,7.82
2023-05-23T02:02:11.208Z,12.27
2023-05-23T02:12:17.917Z,15.80
2023-05-23T02:17:24.262Z,12.40
2023-05-23T02:22:27.596Z,16.73
2023-05-23T02:27:31.615Z,13.48
2023-05-23T02:32:38.077Z,15.35
2023-05-23T02:37:41.602Z,16.40
2023-05-23T02:42:44.990Z,15.15
2023-05-23T02:47:49.691Z,17.90
2023-05-23T02:52:53.050Z,13.57
2023-05-23T02:57:58.805Z,12.85
2023-05-23T03:03:03.633Z,14.85
2023-05-23T03:08:07.207Z,16.98
2023-05-23T03:13:10.623Z,14.80
2023-05-23T03:18:16.318Z,13.30
2023-05-23T03:23:19.868Z,15.45
2023-05-23T03:28:23.489Z,15.35
2023-05-23T03:33:29.822Z,16.77
2023-05-23T03:38:33.407Z,16.75
2023-05-23T03:43:36.734Z,19.02
2023-05-23T03:48:41.964Z,17.08
2023-05-23T03:53:45.694Z,15.43
2023-05-23T03:58:50.870Z,16.77
2023-05-23T04:03:56.095Z,20.50
2023-05-23T04:09:02.760Z,14.65
2023-05-23T04:14:08.151Z,22.88
2023-05-23T04:19:13.386Z,17.20
2023-05-23T04:29:20.514Z,15.10
2023-05-23T04:34:26.089Z,14.57
2023-05-23T04:39:30.917Z,16.60
2023-05-23T04:44:53.680Z,15.50
2023-05-23T04:50:03.654Z,15.48
2023-05-23T04:55:08.674Z,19.55
2023-05-23T05:00:14.871Z,18.30
2023-05-23T05:05:19.766Z,15.30
2023-05-23T05:10:24.294Z,14.60
2023-05-23T05:15:27.651Z,17.00
2023-05-23T05:20:35.360Z,17.42
2023-05-23T05:25:41.302Z,18.60
2023-05-23T05:30:46.442Z,16.35
2023-05-23T05:35:52.459Z,18.13
2023-05-23T05:40:55.767Z,19.00
2023-05-23T05:46:00.876Z,20.30
2023-05-23T05:51:06.596Z,19.58
2023-05-23T05:56:10.869Z,25.15
2023-05-23T06:01:15.721Z,25.88
2023-05-23T06:06:20.850Z,24.55
2023-05-23T06:11:25.009Z,22.52
2023-05-23T06:16:28.831Z,20.63
2023-05-23T06:21:33.840Z,24.73
2023-05-23T06:26:38.952Z,24.75
2023-05-23T06:31:42.367Z,22.95
2023-05-23T06:36:48.475Z,24.88
2023-05-23T06:41:52.901Z,31.38
2023-05-23T06:46:58.829Z,30.05
2023-05-23T06:52:03.935Z,30.70
2023-05-23T06:57:07.544Z,25.83
2023-05-23T07:02:11.563Z,25.15
2023-05-23T07:07:17.140Z,24.13
2023-05-23T07:12:21.525Z,23.77
2023-05-23T07:17:25.204Z,19.63
2023-05-23T07:22:30.908Z,16.92
2023-05-23T07:32:38.259Z,12.70
2023-05-23T07:37:45.031Z,16.30
2023-05-23T07:42:49.211Z,16.95
2023-05-23T07:47:52.854Z,13.73
2023-05-23T07:52:58.199Z,13.75
2023-05-23T07:58:05.891Z,12.55
2023-05-23T08:03:10.025Z,11.15
2023-05-23T08:08:21.998Z,13.05
2023-05-23T08:18:56.724Z,19.60
2023-05-23T08:24:01.873Z,11.77
2023-05-23T08:29:05.494Z,17.38
2023-05-23T08:34:09.590Z,13.85
2023-05-23T08:39:16.122Z,14.68
2023-05-23T08:44:30.514Z,19.90
2023-05-23T08:49:39.617Z,15.77
2023-05-23T08:54:45.849Z,12.57
2023-05-23T08:59:53.383Z,13.82
2023-05-23T09:05:00.025Z,12.73
2023-05-23T09:10:08.157Z,12.10
2023-05-23T09:15:13.545Z,14.38
2023-05-23T09:20:19.356Z,16.30
2023-05-23T09:25:33.900Z,14.30
2023-05-23T09:30:37.861Z,14.25
2023-05-23T09:35:46.692Z,17.27
2023-05-23T09:40:51.910Z,12.55
2023-05-23T09:51:01.653Z,15.85
2023-05-23T09:56:12.492Z,16.30
2023-05-23T10:01:17.245Z,14.35
2023-05-23T10:06:27.972Z,13.32
2023-05-23T10:12:22.267Z,15.55
2023-05-23T10:17:33.305Z,11.30
2023-05-23T10:22:37.775Z,14.35
2023-05-23T10:27:43.554Z,14.87
2023-05-23T10:32:47.792Z,15.00
2023-05-23T10:37:58.553Z,12.15
2023-05-23T10:43:09.453Z,12.43
2023-05-23T10:48:35.751Z,12.55
2023-05-23T10:53:40.747Z,9.32
2023-05-23T10:58:45.813Z,8.70
2023-05-23T11:03:55.536Z,7.78
2023-05-23T11:09:07.354Z,4.82
2023-05-23T11:14:13.029Z,4.78
2023-05-23T11:19:28.817Z,2.85
2023-05-23T11:24:54.825Z,5.57
2023-05-23T11:30:01.705Z,5.28
2023-05-23T11:35:06.552Z,5.18
2023-05-23T11:40:29.900Z,1.75
2023-05-23T11:45:35.851Z,4.45
2023-05-23T11:50:47.566Z,2.65
2023-05-23T11:55:53.440Z,3.97
2023-05-23T12:01:02.705Z,2.88
2023-05-23T12:06:06.156Z,3.13
2023-05-23T12:11:09.790Z,7.20
2023-05-23T12:16:16.149Z,5.60
2023-05-23T12:21:19.928Z,4.32
2023-05-23T12:26:24.021Z,5.18
2023-05-23T12:31:29.289Z,5.40
2023-05-23T12:36:33.256Z,3.75
2023-05-23T12:41:37.008Z,9.43
2023-05-23T12:46:41.995Z,3.67
2023-05-23T12:51:45.694Z,3.38
2023-05-23T12:56:49.147Z,3.35
2023-05-23T13:01:54.252Z,5.63
2023-05-23T13:06:58.092Z,7.00
2023-05-23T13:12:01.786Z,5.95
2023-05-23T13:17:07.308Z,6.95
2023-05-23T13:22:11.909Z,4.97
2023-05-23T13:27:15.656Z,4.27
2023-05-23T13:32:20.706Z,3.40
2023-05-23T13:37:24.344Z,3.70
2023-05-23T13:42:28.126Z,4.15
2023-05-23T13:47:32.807Z,7.80
2023-05-23T13:52:36.660Z,5.10
2023-05-23T13:57:40.457Z,6.55
2023-05-23T14:02:45.432Z,5.65
2023-05-23T14:07:49.231Z,9.43
2023-05-23T14:12:52.807Z,6.45
2023-05-23T14:17:57.864Z,5.15
2023-05-23T14:23:01.774Z,6.90
2023-05-23T14:28:05.358Z,7.57
2023-05-23T14:33:11.377Z,4.53
2023-05-23T14:38:15.133Z,6.47
2023-05-23T14:43:18.771Z,6.63
2023-05-23T14:48:23.794Z,6.00
2023-05-23T14:53:28.055Z,5.30
2023-05-23T14:58:31.800Z,3.97
2023-05-23T15:03:37.102Z,4.20
2023-05-23T15:08:41.864Z,2.83
2023-05-23T15:13:45.611Z,3.80
2023-05-23T15:18:50.705Z,6.15
2023-05-23T15:23:54.655Z,7.22
2023-05-23T15:28:58.469Z,4.82
2023-05-23T15:34:03.948Z,4.88
2023-05-23T15:39:07.710Z,6.07
2023-05-23T15:44:13.405Z,5.13
2023-05-23T15:49:26.550Z,9.57
2023-05-23T15:54:30.752Z,9.95
2023-05-23T15:59:34.247Z,21.58
2023-05-23T16:04:39.387Z,16.52
2023-05-23T16:09:43.152Z,19.48
2023-05-23T16:14:46.984Z,18.83
2023-05-23T16:19:51.828Z,18.10
2023-05-23T16:24:55.729Z,18.73
2023-05-23T16:29:59.466Z,15.77
2023-05-23T16:35:04.541Z,13.75
2023-05-23T16:40:09.372Z,17.35
2023-05-23T16:45:13.027Z,16.57
2023-05-23T16:50:18.165Z,15.77
2023-05-23T16:55:21.800Z,7.78
2023-05-23T17:00:25.412Z,14.48
2023-05-23T17:05:30.142Z,19.85
2023-05-23T17:10:33.738Z,17.70
2023-05-23T17:15:37.684Z,13.60
2023-05-23T17:20:43.197Z,16.20
2023-05-23T17:25:46.974Z,12.18
2023-05-23T17:30:51.658Z,15.55
2023-05-23T17:35:56.705Z,16.43
2023-05-23T17:41:00.560Z,18.58
2023-05-23T17:46:04.089Z,15.30
2023-05-23T17:51:09.076Z,15.98
2023-05-23T17:56:12.790Z,12.93
2023-05-23T18:01:16.422Z,13.52
2023-05-23T18:06:21.249Z,11.27
2023-05-23T18:11:25.840Z,12.97
2023-05-23T18:16:29.478Z,16.17
2023-05-23T18:21:34.921Z,13.10
2023-05-23T18:26:42.272Z,22.30
2023-05-23T18:31:46.123Z,15.27
2023-05-23T18:36:50.840Z,12.82
2023-05-23T18:41:54.055Z,11.77
2023-05-23T18:46:57.444Z,22.30
2023-05-23T18:52:02.185Z,11.80
2023-05-23T18:57:05.556Z,14.07
2023-05-23T19:02:08.878Z,12.20
2023-05-23T19:07:13.897Z,15.30
2023-05-23T19:12:17.185Z,22.23
2023-05-23T19:17:20.491Z,19.30
2023-05-23T19:22:27.788Z,13.38
2023-05-23T19:27:32.815Z,10.07
2023-05-23T19:32:36.718Z,21.05
2023-05-23T19:37:41.640Z,8.13
2023-05-23T19:42:45.159Z,16.20
2023-05-23T19:47:48.468Z,11.57
2023-05-23T19:52:53.548Z,15.68
2023-05-23T19:57:56.925Z,11.20
2023-05-23T20:03:00.374Z,16.80
2023-05-23T20:08:04.999Z,16.10
2023-05-23T20:13:08.220Z,21.40
2023-05-23T20:18:11.640Z,12.15
2023-05-23T20:23:16.321Z,18.73
2023-05-23T20:28:21.129Z,18.17
2023-05-23T20:33:24.939Z,11.82
2023-05-23T20:38:30.193Z,18.67
2023-05-23T20:43:37.327Z,15.15
2023-05-23T20:48:41.299Z,15.30
2023-05-23T20:53:46.113Z,17.23
2023-05-23T20:58:49.326Z,8.53
2023-05-23T21:03:52.529Z,18.33
2023-05-23T21:08:57.114Z,13.02
2023-05-23T21:14:00.565Z,13.27
2023-05-23T21:19:03.814Z,11.07
2023-05-23T21:24:08.550Z,8.25
2023-05-23T21:29:11.811Z,14.03
2023-05-23T21:34:23.815Z,13.15
2023-05-23T21:39:39.178Z,9.80
2023-05-23T21:44:47.006Z,13.43
2023-05-23T21:49:50.798Z,12.52
2023-05-23T21:54:55.733Z,17.58
2023-05-23T21:59:59.364Z,11.37
2023-05-23T22:05:02.900Z,13.80
2023-05-23T22:10:09.147Z,15.68
2023-05-23T22:15:12.919Z,17.60
2023-05-23T22:20:16.805Z,13.82
2023-05-23T22:25:21.886Z,11.18
2023-05-23T22:30:25.108Z,14.07
2023-05-23T22:35:28.378Z,14.40
2023-05-23T22:40:33.032Z,12.57
2023-05-23T22:45:40.632Z,11.50
2023-05-23T22:50:44.530Z,14.07
2023-05-23T22:55:49.924Z,10.93
2023-05-23T23:00:53.207Z,13.55
2023-05-23T23:05:57.490Z,15.55
2023-05-23T23:11:02.150Z,19.33
2023-05-23T23:16:06.770Z,12.73
2023-05-23T23:21:10.330Z,13.27
2023-05-23T23:26:15.236Z,13.68
2023-05-23T23:31:18.670Z,15.50
2023-05-23T23:36:22.371Z,11.35
2023-05-23T23:41:27.594Z,16.65
2023-05-23T23:46:31.243Z,23.10
2023-05-23T23:51:34.856Z,12.05
2023-05-23T23:56:39.938Z,17.60
